sensor_id;sensor_type;location;lat;lon;timestamp;P1;durP1;ratioP1;P2;durP2;ratioP2
37131;SDS011;23035;50.032;21.978;2023-02-22T00:04:35;17.70;;;5.70;;
37131;SDS011;23035;50.032;21.978;2023-02-22T00:09:41;27.48;;;6.00;;
37131;SDS011;23035;50.032;21.978;2023-02-22T00:14:46;16.02;;;5.22;;
37131;SDS011;23035;50.032;21.978;2023-02-22T00:19:54;18.00;;;5.22;;
37131;SDS011;23035;50.032;21.978;2023-02-22T00:24:58;19.63;;;4.68;;
37131;SDS011;23035;50.032;21.978;2023-02-22T00:30:03;14.32;;;5.15;;
37131;SDS011;23035;50.032;21.978;2023-02-22T00:35:10;13.13;;;4.22;;
37131;SDS011;23035;50.032;21.978;2023-02-22T00:40:16;20.20;;;5.53;;
37131;SDS011;23035;50.032;21.978;2023-02-22T00:45:22;22.13;;;5.22;;
37131;SDS011;23035;50.032;21.978;2023-02-22T00:50:32;26.05;;;8.85;;
37131;SDS011;23035;50.032;21.978;2023-02-22T00:55:37;21.02;;;5.95;;
37131;SDS011;23035;50.032;21.978;2023-02-22T01:00:41;16.77;;;4.57;;
37131;SDS011;23035;50.032;21.978;2023-02-22T01:05:49;12.00;;;4.88;;
37131;SDS011;23035;50.032;21.978;2023-02-22T01:10:54;13.25;;;4.93;;
37131;SDS011;23035;50.032;21.978;2023-02-22T01:16:00;16.63;;;4.80;;
37131;SDS011;23035;50.032;21.978;2023-02-22T01:21:06;17.25;;;4.22;;
37131;SDS011;23035;50.032;21.978;2023-02-22T01:26:11;16.27;;;4.60;;
37131;SDS011;23035;50.032;21.978;2023-02-22T01:31:16;13.85;;;4.55;;
37131;SDS011;23035;50.032;21.978;2023-02-22T01:36:22;12.73;;;4.75;;
37131;SDS011;23035;50.032;21.978;2023-02-22T01:41:27;16.25;;;4.25;;
37131;SDS011;23035;50.032;21.978;2023-02-22T01:46:33;13.77;;;4.10;;
37131;SDS011;23035;50.032;21.978;2023-02-22T01:51:40;14.75;;;4.63;;
37131;SDS011;23035;50.032;21.978;2023-02-22T01:56:48;21.95;;;5.60;;
37131;SDS011;23035;50.032;21.978;2023-02-22T02:01:57;17.98;;;4.97;;
37131;SDS011;23035;50.032;21.978;2023-02-22T02:07:04;15.82;;;4.35;;
37131;SDS011;23035;50.032;21.978;2023-02-22T02:12:11;20.48;;;5.22;;
37131;SDS011;23035;50.032;21.978;2023-02-22T02:17:20;17.38;;;4.45;;
37131;SDS011;23035;50.032;21.978;2023-02-22T02:22:34;17.15;;;4.97;;
37131;SDS011;23035;50.032;21.978;2023-02-22T02:27:51;17.25;;;4.00;;
37131;SDS011;23035;50.032;21.978;2023-02-22T02:33:14;18.65;;;4.82;;
37131;SDS011;23035;50.032;21.978;2023-02-22T02:38:29;15.55;;;4.50;;
37131;SDS011;23035;50.032;21.978;2023-02-22T02:43:38;13.80;;;4.60;;
37131;SDS011;23035;50.032;21.978;2023-02-22T02:48:51;15.15;;;4.05;;
37131;SDS011;23035;50.032;21.978;2023-02-22T02:54:00;14.02;;;3.58;;
37131;SDS011;23035;50.032;21.978;2023-02-22T02:59:18;14.60;;;3.80;;
37131;SDS011;23035;50.032;21.978;2023-02-22T03:04:43;12.20;;;3.38;;
37131;SDS011;23035;50.032;21.978;2023-02-22T03:10:05;13.15;;;3.40;;
37131;SDS011;23035;50.032;21.978;2023-02-22T03:15:24;15.20;;;4.13;;
37131;SDS011;23035;50.032;21.978;2023-02-22T03:20:42;15.10;;;4.18;;
37131;SDS011;23035;50.032;21.978;2023-02-22T03:25:54;16.05;;;4.40;;
37131;SDS011;23035;50.032;21.978;2023-02-22T03:31:07;15.43;;;4.53;;
37131;SDS011;23035;50.032;21.978;2023-02-22T03:36:19;14.05;;;3.97;;
37131;SDS011;23035;50.032;21.978;2023-02-22T03:41:29;13.38;;;3.83;;
37131;SDS011;23035;50.032;21.978;2023-02-22T03:46:35;16.90;;;4.55;;
37131;SDS011;23035;50.032;21.978;2023-02-22T03:51:46;17.90;;;3.95;;
37131;SDS011;23035;50.032;21.978;2023-02-22T03:56:52;16.90;;;4.35;;
37131;SDS011;23035;50.032;21.978;2023-02-22T04:01:59;20.00;;;5.25;;
37131;SDS011;23035;50.032;21.978;2023-02-22T04:07:05;16.10;;;4.85;;
37131;SDS011;23035;50.032;21.978;2023-02-22T04:12:10;12.88;;;3.53;;
37131;SDS011;23035;50.032;21.978;2023-02-22T04:17:37;14.27;;;4.20;;
37131;SDS011;23035;50.032;21.978;2023-02-22T04:22:47;13.25;;;3.92;;
37131;SDS011;23035;50.032;21.978;2023-02-22T04:27:53;23.55;;;4.72;;
37131;SDS011;23035;50.032;21.978;2023-02-22T04:33:09;14.77;;;4.40;;
37131;SDS011;23035;50.032;21.978;2023-02-22T04:38:15;18.05;;;4.32;;
37131;SDS011;23035;50.032;21.978;2023-02-22T04:43:20;12.40;;;3.88;;
37131;SDS011;23035;50.032;21.978;2023-02-22T04:48:28;14.48;;;4.43;;
37131;SDS011;23035;50.032;21.978;2023-02-22T04:53:34;15.07;;;5.13;;
37131;SDS011;23035;50.032;21.978;2023-02-22T04:58:39;21.75;;;5.13;;
37131;SDS011;23035;50.032;21.978;2023-02-22T05:03:44;21.50;;;6.07;;
37131;SDS011;23035;50.032;21.978;2023-02-22T05:08:50;26.75;;;7.15;;
37131;SDS011;23035;50.032;21.978;2023-02-22T05:13:55;25.08;;;6.22;;
37131;SDS011;23035;50.032;21.978;2023-02-22T05:18:59;19.80;;;5.47;;
37131;SDS011;23035;50.032;21.978;2023-02-22T05:24:06;27.65;;;7.80;;
37131;SDS011;23035;50.032;21.978;2023-02-22T05:29:11;41.58;;;11.07;;
37131;SDS011;23035;50.032;21.978;2023-02-22T05:34:16;28.05;;;7.68;;
37131;SDS011;23035;50.032;21.978;2023-02-22T05:39:22;22.45;;;5.55;;
37131;SDS011;23035;50.032;21.978;2023-02-22T05:44:26;14.45;;;5.15;;
37131;SDS011;23035;50.032;21.978;2023-02-22T05:49:31;23.17;;;5.43;;
37131;SDS011;23035;50.032;21.978;2023-02-22T05:54:37;23.17;;;7.40;;
37131;SDS011;23035;50.032;21.978;2023-02-22T05:59:42;26.05;;;9.00;;
37131;SDS011;23035;50.032;21.978;2023-02-22T06:04:46;23.67;;;7.15;;
37131;SDS011;23035;50.032;21.978;2023-02-22T06:09:53;22.92;;;5.82;;
37131;SDS011;23035;50.032;21.978;2023-02-22T06:14:57;21.75;;;5.88;;
37131;SDS011;23035;50.032;21.978;2023-02-22T06:20:02;20.55;;;5.80;;
37131;SDS011;23035;50.032;21.978;2023-02-22T06:25:09;59.17;;;14.73;;
37131;SDS011;23035;50.032;21.978;2023-02-22T06:30:17;85.00;;;19.23;;
37131;SDS011;23035;50.032;21.978;2023-02-22T06:35:24;40.78;;;10.57;;
37131;SDS011;23035;50.032;21.978;2023-02-22T06:40:30;32.88;;;7.97;;
37131;SDS011;23035;50.032;21.978;2023-02-22T06:45:35;29.05;;;7.70;;
37131;SDS011;23035;50.032;21.978;2023-02-22T06:50:40;35.72;;;8.90;;
37131;SDS011;23035;50.032;21.978;2023-02-22T06:55:46;37.47;;;9.73;;
37131;SDS011;23035;50.032;21.978;2023-02-22T07:00:51;37.22;;;9.18;;
37131;SDS011;23035;50.032;21.978;2023-02-22T07:05:56;34.17;;;8.20;;
37131;SDS011;23035;50.032;21.978;2023-02-22T07:11:02;45.93;;;11.43;;
37131;SDS011;23035;50.032;21.978;2023-02-22T07:16:07;30.00;;;7.32;;
37131;SDS011;23035;50.032;21.978;2023-02-22T07:21:12;31.27;;;7.43;;
37131;SDS011;23035;50.032;21.978;2023-02-22T07:26:19;26.80;;;5.57;;
37131;SDS011;23035;50.032;21.978;2023-02-22T07:31:24;30.98;;;7.97;;
37131;SDS011;23035;50.032;21.978;2023-02-22T07:36:31;22.23;;;5.97;;
37131;SDS011;23035;50.032;21.978;2023-02-22T07:41:37;15.60;;;5.13;;
37131;SDS011;23035;50.032;21.978;2023-02-22T07:46:56;26.52;;;6.47;;
37131;SDS011;23035;50.032;21.978;2023-02-22T07:52:00;30.33;;;9.57;;
37131;SDS011;23035;50.032;21.978;2023-02-22T07:57:06;13.50;;;5.18;;
37131;SDS011;23035;50.032;21.978;2023-02-22T08:02:12;30.38;;;8.82;;
37131;SDS011;23035;50.032;21.978;2023-02-22T08:07:19;14.63;;;4.32;;
37131;SDS011;23035;50.032;21.978;2023-02-22T08:12:25;19.95;;;5.22;;
37131;SDS011;23035;50.032;21.978;2023-02-22T08:17:30;12.93;;;3.40;;
37131;SDS011;23035;50.032;21.978;2023-02-22T08:22:34;19.60;;;4.43;;
37131;SDS011;23035;50.032;21.978;2023-02-22T08:27:40;15.75;;;5.00;;
37131;SDS011;23035;50.032;21.978;2023-02-22T08:32:46;16.40;;;3.95;;
37131;SDS011;23035;50.032;21.978;2023-02-22T08:37:52;17.13;;;4.97;;
37131;SDS011;23035;50.032;21.978;2023-02-22T08:43:00;17.02;;;4.65;;
37131;SDS011;23035;50.032;21.978;2023-02-22T08:48:06;18.55;;;4.72;;
37131;SDS011;23035;50.032;21.978;2023-02-22T08:53:12;21.10;;;5.40;;
37131;SDS011;23035;50.032;21.978;2023-02-22T08:58:19;15.70;;;4.63;;
37131;SDS011;23035;50.032;21.978;2023-02-22T09:03:24;17.98;;;4.93;;
37131;SDS011;23035;50.032;21.978;2023-02-22T09:08:28;27.40;;;5.65;;
37131;SDS011;23035;50.032;21.978;2023-02-22T09:13:34;19.67;;;5.20;;
37131;SDS011;23035;50.032;21.978;2023-02-22T09:18:39;19.63;;;5.03;;
37131;SDS011;23035;50.032;21.978;2023-02-22T09:23:46;19.70;;;5.45;;
37131;SDS011;23035;50.032;21.978;2023-02-22T09:28:52;18.20;;;4.65;;
37131;SDS011;23035;50.032;21.978;2023-02-22T09:33:56;25.70;;;6.85;;
37131;SDS011;23035;50.032;21.978;2023-02-22T09:39:03;25.95;;;5.82;;
37131;SDS011;23035;50.032;21.978;2023-02-22T09:44:14;20.80;;;5.20;;
37131;SDS011;23035;50.032;21.978;2023-02-22T09:49:23;18.80;;;5.03;;
37131;SDS011;23035;50.032;21.978;2023-02-22T09:54:33;24.98;;;6.03;;
37131;SDS011;23035;50.032;21.978;2023-02-22T09:59:45;26.10;;;6.10;;
37131;SDS011;23035;50.032;21.978;2023-02-22T10:04:59;15.80;;;5.47;;
37131;SDS011;23035;50.032;21.978;2023-02-22T10:10:09;15.52;;;5.03;;
37131;SDS011;23035;50.032;21.978;2023-02-22T10:15:31;12.85;;;3.90;;
37131;SDS011;23035;50.032;21.978;2023-02-22T10:20:53;22.50;;;4.75;;
37131;SDS011;23035;50.032;21.978;2023-02-22T10:26:12;22.77;;;5.10;;
37131;SDS011;23035;50.032;21.978;2023-02-22T10:31:22;18.15;;;4.85;;
37131;SDS011;23035;50.032;21.978;2023-02-22T10:36:31;24.58;;;6.40;;
37131;SDS011;23035;50.032;21.978;2023-02-22T10:41:41;20.90;;;6.18;;
37131;SDS011;23035;50.032;21.978;2023-02-22T10:46:53;19.48;;;5.38;;
37131;SDS011;23035;50.032;21.978;2023-02-22T10:51:59;15.82;;;5.38;;
37131;SDS011;23035;50.032;21.978;2023-02-22T10:57:05;18.23;;;5.13;;
37131;SDS011;23035;50.032;21.978;2023-02-22T11:02:16;20.90;;;5.63;;
37131;SDS011;23035;50.032;21.978;2023-02-22T11:07:23;20.55;;;6.00;;
37131;SDS011;23035;50.032;21.978;2023-02-22T11:12:30;16.55;;;4.68;;
37131;SDS011;23035;50.032;21.978;2023-02-22T11:17:37;15.93;;;4.90;;
37131;SDS011;23035;50.032;21.978;2023-02-22T11:22:43;14.05;;;4.78;;
37131;SDS011;23035;50.032;21.978;2023-02-22T11:27:48;20.98;;;5.13;;
37131;SDS011;23035;50.032;21.978;2023-02-22T11:32:56;16.75;;;4.65;;
37131;SDS011;23035;50.032;21.978;2023-02-22T11:38:09;18.75;;;5.35;;
37131;SDS011;23035;50.032;21.978;2023-02-22T11:43:25;16.42;;;4.85;;
37131;SDS011;23035;50.032;21.978;2023-02-22T11:48:34;17.70;;;4.72;;
37131;SDS011;23035;50.032;21.978;2023-02-22T11:53:58;21.13;;;4.55;;
37131;SDS011;23035;50.032;21.978;2023-02-22T11:59:29;19.67;;;5.18;;
37131;SDS011;23035;50.032;21.978;2023-02-22T12:10:15;19.27;;;4.78;;
37131;SDS011;23035;50.032;21.978;2023-02-22T12:15:30;11.05;;;4.18;;
37131;SDS011;23035;50.032;21.978;2023-02-22T12:20:44;13.75;;;4.13;;
37131;SDS011;23035;50.032;21.978;2023-02-22T12:25:55;10.30;;;4.18;;
37131;SDS011;23035;50.032;21.978;2023-02-22T12:31:09;11.75;;;4.07;;
37131;SDS011;23035;50.032;21.978;2023-02-22T12:36:24;15.95;;;4.03;;
37131;SDS011;23035;50.032;21.978;2023-02-22T12:41:35;15.13;;;4.95;;
37131;SDS011;23035;50.032;21.978;2023-02-22T12:46:47;14.60;;;4.95;;
37131;SDS011;23035;50.032;21.978;2023-02-22T12:51:57;14.68;;;3.90;;
37131;SDS011;23035;50.032;21.978;2023-02-22T12:57:33;13.00;;;3.95;;
37131;SDS011;23035;50.032;21.978;2023-02-22T13:02:44;10.18;;;3.95;;
37131;SDS011;23035;50.032;21.978;2023-02-22T13:08:04;11.65;;;4.03;;
37131;SDS011;23035;50.032;21.978;2023-02-22T13:13:26;14.63;;;5.22;;
37131;SDS011;23035;50.032;21.978;2023-02-22T13:18:40;8.68;;;3.88;;
37131;SDS011;23035;50.032;21.978;2023-02-22T13:23:54;11.75;;;3.65;;
37131;SDS011;23035;50.032;21.978;2023-02-22T13:29:08;14.20;;;4.45;;
37131;SDS011;23035;50.032;21.978;2023-02-22T13:34:29;22.05;;;5.07;;
37131;SDS011;23035;50.032;21.978;2023-02-22T13:45:57;19.88;;;4.97;;
37131;SDS011;23035;50.032;21.978;2023-02-22T13:51:32;14.30;;;4.95;;
37131;SDS011;23035;50.032;21.978;2023-02-22T13:56:47;15.57;;;5.00;;
37131;SDS011;23035;50.032;21.978;2023-02-22T14:01:54;15.18;;;5.00;;
37131;SDS011;23035;50.032;21.978;2023-02-22T14:07:00;24.55;;;8.43;;
37131;SDS011;23035;50.032;21.978;2023-02-22T14:12:07;18.90;;;5.45;;
37131;SDS011;23035;50.032;21.978;2023-02-22T14:17:22;15.68;;;4.75;;
37131;SDS011;23035;50.032;21.978;2023-02-22T14:22:29;13.82;;;4.55;;
37131;SDS011;23035;50.032;21.978;2023-02-22T14:27:39;10.07;;;4.47;;
37131;SDS011;23035;50.032;21.978;2023-02-22T14:32:45;14.65;;;4.97;;
37131;SDS011;23035;50.032;21.978;2023-02-22T14:37:51;14.63;;;5.22;;
37131;SDS011;23035;50.032;21.978;2023-02-22T14:43:02;12.50;;;4.85;;
37131;SDS011;23035;50.032;21.978;2023-02-22T14:48:12;14.23;;;5.00;;
37131;SDS011;23035;50.032;21.978;2023-02-22T14:53:28;12.35;;;4.38;;
37131;SDS011;23035;50.032;21.978;2023-02-22T14:58:43;16.65;;;5.15;;
37131;SDS011;23035;50.032;21.978;2023-02-22T15:03:53;24.05;;;5.45;;
37131;SDS011;23035;50.032;21.978;2023-02-22T15:09:10;17.20;;;5.80;;
37131;SDS011;23035;50.032;21.978;2023-02-22T15:14:28;15.20;;;4.85;;
37131;SDS011;23035;50.032;21.978;2023-02-22T15:19:39;15.60;;;4.53;;
37131;SDS011;23035;50.032;21.978;2023-02-22T15:24:45;16.90;;;6.18;;
37131;SDS011;23035;50.032;21.978;2023-02-22T15:30:04;15.75;;;5.68;;
37131;SDS011;23035;50.032;21.978;2023-02-22T15:35:11;19.45;;;6.47;;
37131;SDS011;23035;50.032;21.978;2023-02-22T15:40:17;16.33;;;5.22;;
37131;SDS011;23035;50.032;21.978;2023-02-22T15:45:25;19.85;;;6.38;;
37131;SDS011;23035;50.032;21.978;2023-02-22T15:50:31;19.33;;;6.55;;
37131;SDS011;23035;50.032;21.978;2023-02-22T15:55:37;22.60;;;5.82;;
37131;SDS011;23035;50.032;21.978;2023-02-22T16:00:58;22.33;;;6.95;;
37131;SDS011;23035;50.032;21.978;2023-02-22T16:06:07;15.27;;;6.97;;
37131;SDS011;23035;50.032;21.978;2023-02-22T16:11:15;23.58;;;7.40;;
37131;SDS011;23035;50.032;21.978;2023-02-22T16:16:33;25.08;;;9.00;;
37131;SDS011;23035;50.032;21.978;2023-02-22T16:21:50;24.38;;;10.45;;
37131;SDS011;23035;50.032;21.978;2023-02-22T16:27:03;27.43;;;10.87;;
37131;SDS011;23035;50.032;21.978;2023-02-22T16:32:12;38.60;;;14.27;;
37131;SDS011;23035;50.032;21.978;2023-02-22T16:37:20;26.83;;;10.52;;
37131;SDS011;23035;50.032;21.978;2023-02-22T16:42:26;26.27;;;10.00;;
37131;SDS011;23035;50.032;21.978;2023-02-22T16:47:32;30.27;;;13.47;;
37131;SDS011;23035;50.032;21.978;2023-02-22T16:52:37;27.23;;;10.70;;
37131;SDS011;23035;50.032;21.978;2023-02-22T16:57:42;33.03;;;13.52;;
37131;SDS011;23035;50.032;21.978;2023-02-22T17:02:49;38.30;;;14.35;;
37131;SDS011;23035;50.032;21.978;2023-02-22T17:12:58;38.28;;;16.00;;
37131;SDS011;23035;50.032;21.978;2023-02-22T17:18:24;33.50;;;14.73;;
37131;SDS011;23035;50.032;21.978;2023-02-22T17:23:30;47.22;;;18.23;;
37131;SDS011;23035;50.032;21.978;2023-02-22T17:28:38;33.63;;;13.00;;
37131;SDS011;23035;50.032;21.978;2023-02-22T17:33:52;46.30;;;13.53;;
37131;SDS011;23035;50.032;21.978;2023-02-22T17:38:59;38.38;;;12.55;;
37131;SDS011;23035;50.032;21.978;2023-02-22T17:44:03;30.67;;;12.00;;
37131;SDS011;23035;50.032;21.978;2023-02-22T17:49:12;36.22;;;13.10;;
37131;SDS011;23035;50.032;21.978;2023-02-22T17:54:17;37.20;;;15.25;;
37131;SDS011;23035;50.032;21.978;2023-02-22T17:59:22;49.65;;;19.02;;
37131;SDS011;23035;50.032;21.978;2023-02-22T18:04:29;40.42;;;16.23;;
37131;SDS011;23035;50.032;21.978;2023-02-22T18:09:36;41.83;;;16.77;;
37131;SDS011;23035;50.032;21.978;2023-02-22T18:14:40;37.22;;;14.38;;
37131;SDS011;23035;50.032;21.978;2023-02-22T18:19:46;30.65;;;12.95;;
37131;SDS011;23035;50.032;21.978;2023-02-22T18:24:51;19.50;;;9.38;;
37131;SDS011;23035;50.032;21.978;2023-02-22T18:30:02;23.95;;;8.32;;
37131;SDS011;23035;50.032;21.978;2023-02-22T18:35:09;14.20;;;6.47;;
37131;SDS011;23035;50.032;21.978;2023-02-22T18:40:13;12.13;;;6.00;;
37131;SDS011;23035;50.032;21.978;2023-02-22T18:45:24;12.68;;;6.53;;
37131;SDS011;23035;50.032;21.978;2023-02-22T18:50:39;14.10;;;6.20;;
37131;SDS011;23035;50.032;21.978;2023-02-22T18:55:45;14.55;;;6.90;;
37131;SDS011;23035;50.032;21.978;2023-02-22T19:00:58;12.98;;;6.18;;
37131;SDS011;23035;50.032;21.978;2023-02-22T19:06:14;17.38;;;7.47;;
37131;SDS011;23035;50.032;21.978;2023-02-22T19:11:21;18.80;;;8.68;;
37131;SDS011;23035;50.032;21.978;2023-02-22T19:16:30;29.05;;;10.27;;
37131;SDS011;23035;50.032;21.978;2023-02-22T19:21:38;15.48;;;7.55;;
37131;SDS011;23035;50.032;21.978;2023-02-22T19:26:43;14.20;;;7.30;;
37131;SDS011;23035;50.032;21.978;2023-02-22T19:31:52;15.75;;;7.00;;
37131;SDS011;23035;50.032;21.978;2023-02-22T19:44:34;18.38;;;7.95;;
37131;SDS011;23035;50.032;21.978;2023-02-22T19:49:39;20.80;;;9.50;;
37131;SDS011;23035;50.032;21.978;2023-02-22T19:54:44;16.40;;;7.65;;
37131;SDS011;23035;50.032;21.978;2023-02-22T19:59:50;18.50;;;8.18;;
37131;SDS011;23035;50.032;21.978;2023-02-22T20:04:56;16.70;;;7.80;;
37131;SDS011;23035;50.032;21.978;2023-02-22T20:10:05;20.00;;;9.03;;
37131;SDS011;23035;50.032;21.978;2023-02-22T20:15:19;27.67;;;11.57;;
37131;SDS011;23035;50.032;21.978;2023-02-22T20:20:25;20.27;;;10.18;;
37131;SDS011;23035;50.032;21.978;2023-02-22T20:25:32;22.45;;;10.75;;
37131;SDS011;23035;50.032;21.978;2023-02-22T20:30:38;22.45;;;10.82;;
37131;SDS011;23035;50.032;21.978;2023-02-22T20:35:43;24.33;;;9.70;;
37131;SDS011;23035;50.032;21.978;2023-02-22T20:40:48;21.27;;;10.07;;
37131;SDS011;23035;50.032;21.978;2023-02-22T20:45:54;17.42;;;8.93;;
37131;SDS011;23035;50.032;21.978;2023-02-22T20:51:03;19.33;;;9.68;;
37131;SDS011;23035;50.032;21.978;2023-02-22T20:56:10;17.45;;;8.40;;
37131;SDS011;23035;50.032;21.978;2023-02-22T21:01:18;17.92;;;8.38;;
37131;SDS011;23035;50.032;21.978;2023-02-22T21:06:24;13.85;;;7.15;;
37131;SDS011;23035;50.032;21.978;2023-02-22T21:11:29;16.30;;;8.70;;
37131;SDS011;23035;50.032;21.978;2023-02-22T21:16:35;15.95;;;7.55;;
37131;SDS011;23035;50.032;21.978;2023-02-22T21:21:40;18.48;;;8.88;;
37131;SDS011;23035;50.032;21.978;2023-02-22T21:26:45;15.83;;;7.97;;
37131;SDS011;23035;50.032;21.978;2023-02-22T21:31:52;18.42;;;9.32;;
37131;SDS011;23035;50.032;21.978;2023-02-22T21:36:57;19.25;;;9.02;;
37131;SDS011;23035;50.032;21.978;2023-02-22T21:42:02;20.58;;;9.25;;
37131;SDS011;23035;50.032;21.978;2023-02-22T21:47:10;18.52;;;8.68;;
37131;SDS011;23035;50.032;21.978;2023-02-22T21:52:14;19.63;;;8.68;;
37131;SDS011;23035;50.032;21.978;2023-02-22T21:57:19;20.88;;;8.27;;
37131;SDS011;23035;50.032;21.978;2023-02-22T22:02:26;17.55;;;8.07;;
37131;SDS011;23035;50.032;21.978;2023-02-22T22:07:31;20.70;;;8.32;;
37131;SDS011;23035;50.032;21.978;2023-02-22T22:12:36;16.48;;;7.45;;
37131;SDS011;23035;50.032;21.978;2023-02-22T22:17:45;14.68;;;6.93;;
37131;SDS011;23035;50.032;21.978;2023-02-22T22:22:50;13.98;;;6.80;;
37131;SDS011;23035;50.032;21.978;2023-02-22T22:28:04;14.70;;;7.15;;
37131;SDS011;23035;50.032;21.978;2023-02-22T22:33:12;15.45;;;7.47;;
37131;SDS011;23035;50.032;21.978;2023-02-22T22:38:17;14.45;;;7.13;;
37131;SDS011;23035;50.032;21.978;2023-02-22T22:43:22;20.85;;;8.52;;
37131;SDS011;23035;50.032;21.978;2023-02-22T22:48:29;17.08;;;8.30;;
37131;SDS011;23035;50.032;21.978;2023-02-22T22:53:38;18.20;;;8.25;;
37131;SDS011;23035;50.032;21.978;2023-02-22T22:58:46;16.92;;;8.15;;
37131;SDS011;23035;50.032;21.978;2023-02-22T23:03:53;15.48;;;8.35;;
37131;SDS011;23035;50.032;21.978;2023-02-22T23:09:03;17.38;;;8.18;;
37131;SDS011;23035;50.032;21.978;2023-02-22T23:14:14;17.85;;;8.82;;
37131;SDS011;23035;50.032;21.978;2023-02-22T23:19:22;17.27;;;8.80;;
37131;SDS011;23035;50.032;21.978;2023-02-22T23:29:31;17.95;;;8.73;;
37131;SDS011;23035;50.032;21.978;2023-02-22T23:34:38;17.67;;;9.13;;
37131;SDS011;23035;50.032;21.978;2023-02-22T23:39:43;22.60;;;10.35;;
37131;SDS011;23035;50.032;21.978;2023-02-22T23:44:47;17.85;;;9.05;;
37131;SDS011;23035;50.032;21.978;2023-02-22T23:49:55;22.02;;;9.98;;
37131;SDS011;23035;50.032;21.978;2023-02-22T23:55:00;25.80;;;10.90;;
